Current Weather

Casa Grande Muni

Casa Grande, Arizona (KCGZ)

Report from: Sunday, June 26, 2022 8:56 AM MST
Current time: Sunday, June 26, 2022 9:39 AM MST

Nearby weather
Weather history
Weather forecast

Temperature32.8°C (91.0°F)
Heat index32.9°C (91.1°F)
Dew point16.1°C (61.0°F)
Winds 3 kts (1.5 m/s, 3.5 mph) South-Southwest (210°)
Visibility10 mi. (16.1 km)
Clouds Sky clear
Altimeter30.04 in.Hg (1017 mB)
Relative humidity37 %
Density altitude2,147 ft. (654 m)
Sea-level pressure101.5 kPa (1015 mB, 29.98 in.Hg)
Remarks Fully automated report
System requires maintenance
Automated weather observing station with precipitation discriminator
Flight conditions Visual Meteorological Conditions
Raw dataKCGZ 261556Z AUTO 21003KT 10SM CLR 33/16 A3004 RMK AO2 SLP154 T03280161 $
An error has occurred. This application may no longer respond until reloaded. Reload 🗙